Time;durP1;ratioP1;P1;durP2;ratioP2;P2;SDS_P1;SDS_P2;PMS_P1;PMS_P2;Temp;Humidity;BMP_temperature;BMP_pressure;BME280_temperature;BME280_humidity;BME280_pressure;Samples;Min_cycle;Max_cycle;Signal;HPM_P1;HPM_P2
2022/07/01 00:02:00;;;;;;;18.00;13.87;;;14.20;99.90;;;;;;5031764;28;20224;-62
2022/07/01 00:04:27;;;;;;;18.37;12.87;;;14.30;99.90;;;;;;5031513;28;20268;-62
2022/07/01 00:06:54;;;;;;;19.57;11.87;;;14.20;99.90;;;;;;5031117;28;20315;-62
2022/07/01 00:09:21;;;;;;;18.77;13.07;;;14.20;99.90;;;;;;5031714;28;20212;-62
2022/07/01 00:11:48;;;;;;;18.70;13.27;;;14.10;99.90;;;;;;5031735;28;20286;-62
2022/07/01 00:14:15;;;;;;;16.97;11.93;;;14.10;99.90;;;;;;5031572;28;20207;-62
2022/07/01 00:16:43;;;;;;;16.10;11.40;;;14.10;99.90;;;;;;5031131;28;20278;-61
2022/07/01 00:19:10;;;;;;;19.33;12.60;;;14.10;99.90;;;;;;5031514;28;20217;-61
2022/07/01 00:21:37;;;;;;;17.87;12.30;;;14.10;99.90;;;;;;5031147;28;20282;-60
2022/07/01 00:24:04;;;;;;;18.50;12.33;;;14.00;99.90;;;;;;5031585;28;20291;-61
2022/07/01 00:26:30;;;;;;;19.57;13.20;;;14.00;99.90;;;;;;5030946;28;20230;-61
2022/07/01 00:28:58;;;;;;;18.83;13.07;;;14.00;99.90;;;;;;5031514;28;20258;-62
2022/07/01 00:31:25;;;;;;;20.60;13.83;;;14.00;99.90;;;;;;5031458;28;20295;-61
2022/07/01 00:33:53;;;;;;;21.13;13.30;;;13.90;99.90;;;;;;5031335;28;20611;-61
2022/07/01 00:36:19;;;;;;;29.87;14.07;;;14.00;99.90;;;;;;5031040;28;20214;-62
2022/07/01 00:38:46;;;;;;;21.37;14.40;;;14.10;99.90;;;;;;5031713;28;20647;-62
2022/07/01 00:41:13;;;;;;;21.90;13.47;;;14.10;99.90;;;;;;5032182;28;20209;-61
2022/07/01 00:43:39;;;;;;;23.07;14.30;;;14.10;99.90;;;;;;5035050;28;20283;-61
2022/07/01 00:46:06;;;;;;;21.73;13.50;;;14.10;99.90;;;;;;5034410;28;20209;-62
2022/07/01 00:48:35;;;;;;;27.83;14.80;;;14.10;99.90;;;;;;5034949;28;20212;-62
2022/07/01 00:51:03;;;;;;;21.17;14.17;;;14.10;99.90;;;;;;5034854;28;20266;-62
2022/07/01 00:53:32;;;;;;;26.10;15.00;;;14.10;99.90;;;;;;5034866;28;20280;-61
2022/07/01 00:55:58;;;;;;;24.23;15.00;;;14.00;99.90;;;;;;5034530;28;20617;-62
2022/07/01 00:58:26;;;;;;;25.07;15.37;;;14.10;99.90;;;;;;5034432;28;20251;-61
2022/07/01 01:00:54;;;;;;;23.57;14.03;;;14.00;99.90;;;;;;5034841;28;20203;-61
2022/07/01 01:03:20;;;;;;;26.07;14.97;;;14.00;99.90;;;;;;5034372;28;20232;-62
2022/07/01 01:05:47;;;;;;;23.27;14.13;;;14.00;99.90;;;;;;5034773;28;20213;-62
2022/07/01 01:08:15;;;;;;;25.63;15.40;;;14.10;99.90;;;;;;5034121;28;20864;-62
2022/07/01 01:10:43;;;;;;;26.20;14.70;;;14.10;99.90;;;;;;5034870;28;20216;-62
2022/07/01 01:13:10;;;;;;;27.27;15.60;;;14.00;99.90;;;;;;5034315;28;20274;-59
2022/07/01 01:15:37;;;;;;;23.20;13.80;;;14.00;99.90;;;;;;5034340;28;20212;-62
2022/07/01 01:18:04;;;;;;;25.13;15.87;;;14.00;99.90;;;;;;5034068;28;20240;-62
2022/07/01 01:20:35;;;;;;;25.00;15.73;;;14.00;99.90;;;;;;5034329;28;20260;-62
2022/07/01 01:23:02;;;;;;;28.80;16.20;;;14.00;99.90;;;;;;5034364;28;20227;-62
2022/07/01 01:25:28;;;;;;;28.53;14.97;;;14.00;99.90;;;;;;5034213;28;20235;-60
2022/07/01 01:27:55;;;;;;;26.87;16.50;;;14.00;99.90;;;;;;5033862;28;20227;-62
2022/07/01 01:30:22;;;;;;;24.20;15.60;;;13.90;99.90;;;;;;5033859;28;20214;-62
2022/07/01 01:32:49;;;;;;;28.17;15.97;;;13.90;99.90;;;;;;5034217;28;20201;-62
2022/07/01 01:35:16;;;;;;;25.20;15.27;;;13.90;99.90;;;;;;5033818;28;20678;-62
2022/07/01 01:37:44;;;;;;;25.17;15.27;;;13.90;99.90;;;;;;5033824;28;20235;-62
2022/07/01 01:40:13;;;;;;;22.00;14.87;;;13.80;99.90;;;;;;5033896;28;20203;-62
2022/07/01 01:42:40;;;;;;;24.03;14.77;;;13.80;99.90;;;;;;5033801;28;20695;-62
2022/07/01 01:45:08;;;;;;;24.63;13.93;;;13.80;99.90;;;;;;5033817;28;20207;-61
2022/07/01 01:47:35;;;;;;;22.50;14.00;;;13.80;99.90;;;;;;5033171;28;20228;-61
2022/07/01 01:50:02;;;;;;;22.70;13.17;;;13.80;99.90;;;;;;5034132;28;20215;-61
2022/07/01 01:52:28;;;;;;;23.30;13.20;;;13.80;99.90;;;;;;5032703;28;20676;-62
2022/07/01 01:54:56;;;;;;;19.53;13.30;;;13.80;99.90;;;;;;5033723;28;20257;-62
2022/07/01 01:57:23;;;;;;;17.57;11.50;;;13.80;99.90;;;;;;5032633;28;20229;-60
2022/07/01 01:59:50;;;;;;;19.30;11.67;;;13.80;99.90;;;;;;5033973;28;20209;-62
2022/07/01 02:02:17;;;;;;;20.37;12.07;;;13.70;99.90;;;;;;5033567;28;20324;-61
2022/07/01 02:04:44;;;;;;;18.00;10.77;;;13.80;99.90;;;;;;5033609;28;20264;-62
2022/07/01 02:07:10;;;;;;;17.53;10.80;;;13.80;99.90;;;;;;5033075;28;20282;-61
2022/07/01 02:09:37;;;;;;;17.97;10.93;;;13.70;99.90;;;;;;5033600;28;20265;-60
2022/07/01 02:12:06;;;;;;;15.00;10.17;;;13.70;99.90;;;;;;5033468;28;20203;-61
2022/07/01 02:14:32;;;;;;;17.00;10.40;;;13.70;99.90;;;;;;5033542;28;20211;-62
2022/07/01 02:16:59;;;;;;;16.83;10.50;;;13.70;99.90;;;;;;5032611;28;20237;-61
2022/07/01 02:19:26;;;;;;;14.13;10.00;;;13.70;99.90;;;;;;5033448;28;20265;-61
2022/07/01 02:21:52;;;;;;;14.20;9.47;;;13.70;99.90;;;;;;5033204;28;20256;-63
2022/07/01 02:24:19;;;;;;;14.17;9.50;;;13.70;99.90;;;;;;5032942;28;20205;-62
2022/07/01 02:26:46;;;;;;;14.07;9.13;;;13.60;99.90;;;;;;5033029;28;20239;-62
2022/07/01 02:29:14;;;;;;;15.10;9.23;;;13.60;99.90;;;;;;5033037;28;20208;-59
2022/07/01 02:31:41;;;;;;;12.07;8.07;;;13.60;99.90;;;;;;5032949;28;20671;-60
2022/07/01 02:34:07;;;;;;;14.93;8.50;;;13.60;99.90;;;;;;5032830;28;20208;-58
2022/07/01 02:36:34;;;;;;;13.47;7.90;;;13.60;99.90;;;;;;5032408;28;20224;-60
2022/07/01 02:39:01;;;;;;;16.83;7.93;;;13.60;99.90;;;;;;5032754;28;20235;-62
2022/07/01 02:41:28;;;;;;;13.23;7.77;;;13.50;99.90;;;;;;5032854;28;20210;-61
2022/07/01 02:43:55;;;;;;;13.57;8.10;;;13.60;99.90;;;;;;5032914;28;20227;-61
2022/07/01 02:46:23;;;;;;;11.43;7.47;;;13.60;99.90;;;;;;5032360;28;20215;-61
2022/07/01 02:48:50;;;;;;;14.63;7.90;;;13.50;99.90;;;;;;5032652;28;20207;-58
2022/07/01 02:51:17;;;;;;;13.47;7.50;;;13.50;99.90;;;;;;5032486;28;20211;-62
2022/07/01 02:53:44;;;;;;;15.37;7.93;;;13.60;99.90;;;;;;5032488;28;20623;-60
2022/07/01 02:56:10;;;;;;;17.83;8.57;;;13.50;99.90;;;;;;5032228;28;20281;-61
2022/07/01 02:58:37;;;;;;;15.23;7.90;;;13.60;99.90;;;;;;5032641;28;20265;-60
2022/07/01 03:01:04;;;;;;;16.93;8.43;;;13.50;99.90;;;;;;5032602;28;20256;-61
2022/07/01 03:03:32;;;;;;;13.00;7.13;;;13.50;99.90;;;;;;5032385;28;20234;-60
2022/07/01 03:05:58;;;;;;;13.53;7.87;;;13.50;99.90;;;;;;5031890;28;20203;-61
2022/07/01 03:08:25;;;;;;;14.40;7.77;;;13.50;99.90;;;;;;5032364;28;20280;-61
2022/07/01 03:10:52;;;;;;;12.43;7.47;;;13.40;99.90;;;;;;5032565;28;20207;-61
2022/07/01 03:13:19;;;;;;;17.20;8.13;;;13.40;99.90;;;;;;5031856;28;20206;-61
2022/07/01 03:15:46;;;;;;;12.93;7.50;;;13.40;99.90;;;;;;5032330;28;20654;-60
2022/07/01 03:18:13;;;;;;;15.00;8.00;;;13.40;99.90;;;;;;5031760;28;20743;-60
2022/07/01 03:20:41;;;;;;;15.97;9.73;;;13.40;99.90;;;;;;5032086;28;20210;-61
2022/07/01 03:23:07;;;;;;;16.73;7.83;;;13.40;99.90;;;;;;5032574;28;20234;-61
2022/07/01 03:25:35;;;;;;;14.20;8.00;;;13.40;99.90;;;;;;5032964;28;20561;-61
2022/07/01 03:28:03;;;;;;;13.70;8.27;;;13.40;99.90;;;;;;5032238;28;20736;-62
2022/07/01 03:30:30;;;;;;;14.83;7.23;;;13.40;99.90;;;;;;5031898;28;20202;-62
2022/07/01 03:32:57;;;;;;;16.47;8.63;;;13.40;99.90;;;;;;5031990;28;20207;-62
2022/07/01 03:35:40;;;;;;;14.77;7.83;;;13.40;99.90;;;;;;5031649;28;20206;-62
2022/07/01 03:38:08;;;;;;;15.23;8.77;;;13.40;99.90;;;;;;5031663;28;20232;-62
2022/07/01 03:40:35;;;;;;;14.33;8.70;;;13.40;99.90;;;;;;5032030;28;20631;-61
2022/07/01 03:43:03;;;;;;;13.10;8.17;;;13.40;99.90;;;;;;5031862;28;20646;-61
2022/07/01 03:45:29;;;;;;;15.00;8.43;;;13.40;99.90;;;;;;5031797;28;20699;-59
2022/07/01 03:47:56;;;;;;;18.00;10.23;;;13.40;99.90;;;;;;5031290;28;20229;-61
2022/07/01 03:50:25;;;;;;;14.83;10.00;;;13.40;99.90;;;;;;5031141;28;20673;-59
2022/07/01 03:54:29;;;;;;;14.70;9.47;;;13.30;99.90;;;;;;5031838;28;20202;-60
2022/07/01 03:55:41;;;;;;;20.33;10.03;;;13.40;99.90;;;;;;5031406;28;20207;-60
2022/07/01 03:58:07;;;;;;;20.17;10.53;;;13.30;99.90;;;;;;5031641;28;20738;-65
2022/07/01 04:00:35;;;;;;;16.93;10.20;;;13.30;99.90;;;;;;5031768;28;20846;-62
2022/07/01 04:03:02;;;;;;;16.73;10.07;;;13.40;99.90;;;;;;5031681;28;20256;-62
2022/07/01 04:05:29;;;;;;;20.83;10.00;;;13.40;99.90;;;;;;5031122;28;20268;-61
2022/07/01 04:07:55;;;;;;;17.43;9.47;;;13.40;99.90;;;;;;5031173;28;20647;-62
2022/07/01 04:10:22;;;;;;;15.00;9.00;;;13.40;99.90;;;;;;5031658;28;20210;-62
2022/07/01 04:12:50;;;;;;;12.53;8.30;;;13.40;99.90;;;;;;5031275;28;20719;-62
2022/07/01 04:15:18;;;;;;;17.03;8.87;;;13.40;99.90;;;;;;5031512;28;20685;-62
2022/07/01 04:17:44;;;;;;;15.17;9.63;;;13.40;99.90;;;;;;5034762;28;20234;-60
2022/07/01 04:20:12;;;;;;;16.13;9.13;;;13.40;99.90;;;;;;5035394;28;20672;-61
2022/07/01 04:22:38;;;;;;;16.97;9.97;;;13.40;99.90;;;;;;5035144;28;20305;-62
2022/07/01 04:25:05;;;;;;;13.70;9.63;;;13.40;99.90;;;;;;5035494;28;20210;-62
2022/07/01 04:27:32;;;;;;;15.90;9.13;;;13.50;99.90;;;;;;5034765;28;20233;-62
2022/07/01 04:30:02;;;;;;;17.17;9.47;;;13.50;99.90;;;;;;5035287;28;20261;-62
2022/07/01 04:32:28;;;;;;;19.20;9.20;;;13.50;99.90;;;;;;5035525;28;20204;-69
2022/07/01 04:34:55;;;;;;;12.67;8.60;;;13.60;99.90;;;;;;5035083;28;20209;-62
2022/07/01 04:37:22;;;;;;;15.80;8.97;;;13.60;99.90;;;;;;5034483;28;20317;-62
2022/07/01 04:39:49;;;;;;;13.47;8.23;;;13.60;99.90;;;;;;5045242;28;20255;-60
2022/07/01 04:42:15;;;;;;;14.40;8.83;;;13.70;99.90;;;;;;5039751;28;20211;-59
2022/07/01 04:44:42;;;;;;;11.77;8.57;;;13.90;99.90;;;;;;5034655;28;20209;-61
2022/07/01 04:47:10;;;;;;;13.60;8.37;;;13.90;99.90;;;;;;5034482;28;20291;-59
2022/07/01 04:52:27;;;;;;;14.97;9.17;;;14.10;99.90;;;;;;5035150;28;20222;-60
2022/07/01 04:54:53;;;;;;;18.57;8.07;;;14.20;99.90;;;;;;5035025;28;20233;-62
2022/07/01 04:57:20;;;;;;;11.57;7.77;;;14.20;99.90;;;;;;5034066;28;20224;-60
2022/07/01 04:59:47;;;;;;;13.70;8.33;;;14.20;99.90;;;;;;5034548;28;20209;-60
2022/07/01 05:02:15;;;;;;;11.07;7.80;;;14.20;99.90;;;;;;5034124;28;20704;-60
2022/07/01 05:04:41;;;;;;;14.70;7.80;;;14.20;99.90;;;;;;5034535;28;20252;-62
2022/07/01 05:07:27;;;;;;;12.33;7.57;;;14.10;99.90;;;;;;5034067;28;20781;-61
2022/07/01 05:09:54;;;;;;;13.40;8.30;;;14.10;99.90;;;;;;5034808;28;20210;-62
2022/07/01 05:12:21;;;;;;;12.70;8.47;;;14.10;99.90;;;;;;5034399;28;20205;-61
2022/07/01 05:14:48;;;;;;;13.23;8.07;;;14.00;99.90;;;;;;5034627;28;20256;-61
2022/07/01 05:17:16;;;;;;;14.73;8.30;;;13.90;99.90;;;;;;5033798;28;20796;-61
2022/07/01 05:22:27;;;;;;;14.73;8.67;;;13.90;99.90;;;;;;5034844;28;20202;-60
2022/07/01 05:24:53;;;;;;;12.03;7.83;;;13.90;99.90;;;;;;5034955;28;20209;-59
2022/07/01 05:27:20;;;;;;;17.50;8.57;;;13.90;99.90;;;;;;5033487;28;20255;-65
2022/07/01 05:29:47;;;;;;;10.10;7.73;;;13.90;99.90;;;;;;5043135;28;20259;-63
2022/07/01 05:32:14;;;;;;;14.07;7.47;;;13.90;99.90;;;;;;5053023;28;20215;-62
2022/07/01 05:34:42;;;;;;;13.03;7.77;;;13.90;99.90;;;;;;5053191;28;20207;-62
2022/07/01 05:37:09;;;;;;;11.00;7.00;;;13.90;99.90;;;;;;5051625;28;20233;-63
2022/07/01 05:39:36;;;;;;;12.13;7.17;;;13.90;99.90;;;;;;5052421;28;20260;-63
2022/07/01 05:42:03;;;;;;;13.33;7.20;;;13.90;99.90;;;;;;5051253;28;20258;-64
2022/07/01 05:44:29;;;;;;;14.10;7.50;;;13.90;99.90;;;;;;5050892;28;20227;-63
2022/07/01 05:46:56;;;;;;;14.40;7.50;;;13.90;99.90;;;;;;5051149;28;20287;-63
2022/07/01 05:49:23;;;;;;;9.90;6.57;;;14.00;99.90;;;;;;5051985;28;20266;-63
2022/07/01 05:51:51;;;;;;;11.77;7.00;;;14.10;99.90;;;;;;5050950;28;20258;-65
2022/07/01 05:54:18;;;;;;;13.57;7.47;;;14.10;99.90;;;;;;5051456;28;20213;-63
2022/07/01 05:56:44;;;;;;;10.77;6.73;;;14.10;99.90;;;;;;5051988;28;20233;-64
2022/07/01 05:59:11;;;;;;;10.37;7.53;;;14.10;99.90;;;;;;5051194;28;20205;-63
2022/07/01 06:01:38;;;;;;;9.30;7.07;;;14.00;99.90;;;;;;5051553;28;20267;-65
2022/07/01 06:04:05;;;;;;;10.30;7.13;;;14.10;99.90;;;;;;5051002;28;20221;-65
2022/07/01 06:06:31;;;;;;;11.40;7.57;;;14.10;99.90;;;;;;5049564;28;20228;-66
2022/07/01 06:08:59;;;;;;;12.73;7.23;;;14.10;99.90;;;;;;5051239;28;20209;-64
2022/07/01 06:11:26;;;;;;;12.70;7.23;;;14.10;99.90;;;;;;5050060;28;20680;-64
2022/07/01 06:13:53;;;;;;;11.73;7.33;;;14.10;99.90;;;;;;5051144;28;20877;-64
2022/07/01 06:16:20;;;;;;;10.97;6.73;;;14.10;99.90;;;;;;5051081;28;20213;-64
2022/07/01 06:18:46;;;;;;;12.00;7.60;;;14.20;99.90;;;;;;5051987;28;20255;-64
2022/07/01 06:21:14;;;;;;;13.80;7.20;;;14.20;99.90;;;;;;5049920;28;20213;-64
2022/07/01 06:23:41;;;;;;;12.87;7.10;;;14.30;99.90;;;;;;5049707;28;20283;-64
2022/07/01 06:26:09;;;;;;;9.57;6.97;;;14.40;99.90;;;;;;5050471;28;20210;-63
2022/07/01 06:28:36;;;;;;;11.17;6.70;;;14.40;99.90;;;;;;5050393;28;20213;-64
2022/07/01 06:31:03;;;;;;;8.07;6.80;;;14.40;99.90;;;;;;5051486;28;20217;-64
2022/07/01 06:33:30;;;;;;;8.50;6.97;;;14.40;99.90;;;;;;5050424;28;20206;-67
2022/07/01 06:35:57;;;;;;;9.50;6.50;;;14.40;99.90;;;;;;5050683;28;20215;-66
2022/07/01 06:38:24;;;;;;;9.97;6.47;;;14.40;99.90;;;;;;5050162;28;20275;-66
2022/07/01 06:43:33;;;;;;;8.23;6.40;;;14.40;99.90;;;;;;5051088;28;20312;-60
2022/07/01 06:46:01;;;;;;;9.40;6.87;;;14.60;99.90;;;;;;5051723;28;20201;-61
2022/07/01 06:48:27;;;;;;;10.10;6.13;;;14.70;99.90;;;;;;5052075;28;20230;-65
2022/07/01 06:50:54;;;;;;;9.63;6.07;;;14.90;99.90;;;;;;5051565;28;20205;-64
2022/07/01 06:53:21;;;;;;;11.73;6.57;;;15.00;99.90;;;;;;5051920;28;20205;-64
2022/07/01 06:55:47;;;;;;;10.63;6.13;;;15.20;99.90;;;;;;5040730;28;20213;-65
2022/07/01 06:58:14;;;;;;;9.57;5.60;;;15.20;99.90;;;;;;5036600;28;20256;-67
2022/07/01 07:00:42;;;;;;;8.13;5.27;;;15.10;99.90;;;;;;5052235;28;20213;-64
2022/07/01 07:03:09;;;;;;;7.77;5.77;;;15.10;99.90;;;;;;5051424;28;20299;-63
2022/07/01 07:05:36;;;;;;;10.60;5.97;;;15.00;99.90;;;;;;5051441;28;20212;-64
2022/07/01 07:08:03;;;;;;;9.83;5.47;;;15.00;99.90;;;;;;5050935;28;20264;-64
2022/07/01 07:10:29;;;;;;;9.93;5.37;;;15.10;99.90;;;;;;5051613;28;20219;-64
2022/07/01 07:12:56;;;;;;;9.23;4.90;;;15.00;99.90;;;;;;5051101;28;20625;-63
2022/07/01 07:15:23;;;;;;;9.50;5.57;;;15.00;99.90;;;;;;5051461;28;20242;-63
2022/07/01 07:17:51;;;;;;;6.97;5.60;;;15.00;99.90;;;;;;5050951;28;20240;-63
2022/07/01 07:20:18;;;;;;;9.33;5.60;;;15.10;99.90;;;;;;5049386;28;20267;-63
2022/07/01 07:22:44;;;;;;;9.30;5.07;;;15.30;99.90;;;;;;5031791;28;20206;-63
2022/07/01 07:25:11;;;;;;;9.03;4.97;;;15.50;99.90;;;;;;5031468;28;20283;-63
2022/07/01 07:27:38;;;;;;;7.87;4.97;;;15.60;99.90;;;;;;5031216;28;20238;-64
2022/07/01 07:30:05;;;;;;;6.00;4.50;;;15.60;99.90;;;;;;5031124;28;20207;-63
2022/07/01 07:32:32;;;;;;;8.23;4.27;;;15.60;99.90;;;;;;5031153;28;20206;-62
2022/07/01 07:35:00;;;;;;;8.37;4.73;;;15.60;99.90;;;;;;5031066;28;20256;-60
2022/07/01 07:37:27;;;;;;;10.40;4.90;;;15.70;99.90;;;;;;5030496;28;20261;-63
2022/07/01 07:39:53;;;;;;;9.57;5.10;;;15.90;99.90;;;;;;5031338;28;20811;-61
2022/07/01 07:42:20;;;;;;;7.13;4.93;;;16.00;99.90;;;;;;5032064;28;20209;-63
2022/07/01 07:44:47;;;;;;;8.20;4.10;;;16.20;99.90;;;;;;5051022;28;20229;-63
2022/07/01 07:47:13;;;;;;;4.23;3.83;;;16.50;99.90;;;;;;5050628;28;20229;-62
2022/07/01 07:49:40;;;;;;;6.77;6.03;;;16.70;99.90;;;;;;5050570;28;20205;-62
2022/07/01 07:52:08;;;;;;;10.07;5.73;;;16.70;99.90;;;;;;5050037;28;20263;-63
2022/07/01 07:54:35;;;;;;;9.20;5.70;;;16.60;99.90;;;;;;5050576;28;20201;-63
2022/07/01 07:57:02;;;;;;;6.73;5.23;;;16.50;99.90;;;;;;5050697;28;20229;-63
2022/07/01 07:59:28;;;;;;;8.93;5.77;;;16.50;99.90;;;;;;5050766;28;20221;-63
2022/07/01 08:01:55;;;;;;;9.00;5.33;;;16.50;99.90;;;;;;5050487;28;20675;-62
2022/07/01 08:04:22;;;;;;;5.97;5.33;;;16.60;99.90;;;;;;5050735;28;20267;-64
2022/07/01 08:06:49;;;;;;;7.37;4.47;;;16.60;99.90;;;;;;5050214;28;20275;-64
2022/07/01 08:09:17;;;;;;;7.23;3.70;;;16.70;99.90;;;;;;5051213;28;20263;-64
2022/07/01 08:11:44;;;;;;;6.07;3.47;;;16.90;99.90;;;;;;5050352;28;20259;-64
2022/07/01 08:14:11;;;;;;;4.80;3.30;;;17.00;99.90;;;;;;5051066;28;20205;-65
2022/07/01 08:16:38;;;;;;;3.80;3.40;;;17.00;99.90;;;;;;5050012;28;20252;-62
2022/07/01 08:19:04;;;;;;;7.37;3.73;;;16.90;99.90;;;;;;5050801;28;20885;-59
2022/07/01 08:21:31;;;;;;;6.47;3.87;;;16.80;99.90;;;;;;5050926;28;20202;-60
2022/07/01 08:23:58;;;;;;;7.40;3.90;;;16.60;99.90;;;;;;5050068;28;20256;-60
2022/07/01 08:26:26;;;;;;;6.17;3.77;;;16.60;99.90;;;;;;5050487;28;20255;-63
2022/07/01 08:28:53;;;;;;;6.27;3.40;;;16.60;99.90;;;;;;5050296;28;20255;-58
2022/07/01 08:31:19;;;;;;;6.43;3.20;;;16.70;99.90;;;;;;5050321;28;20210;-60
2022/07/01 08:33:46;;;;;;;7.03;3.30;;;16.80;99.90;;;;;;5050287;28;20664;-61
2022/07/01 08:36:13;;;;;;;5.73;3.70;;;16.90;99.90;;;;;;5049989;28;20687;-61
2022/07/01 08:38:41;;;;;;;3.70;3.13;;;16.80;99.90;;;;;;5050420;28;20233;-59
2022/07/01 08:41:07;;;;;;;6.10;3.17;;;16.80;99.90;;;;;;5050188;28;20292;-60
2022/07/01 08:43:36;;;;;;;5.17;3.47;;;16.90;99.90;;;;;;5050258;28;20206;-60
2022/07/01 08:46:03;;;;;;;4.30;3.67;;;17.10;99.90;;;;;;5050225;28;20263;-62
2022/07/01 08:48:30;;;;;;;5.97;4.20;;;17.20;99.90;;;;;;5050331;28;20312;-61
2022/07/01 08:50:57;;;;;;;5.77;3.30;;;17.40;99.90;;;;;;5050180;28;20205;-60
2022/07/01 08:53:23;;;;;;;5.03;3.30;;;17.50;99.90;;;;;;5050582;28;20213;-62
2022/07/01 08:58:37;;;;;;;7.40;5.23;;;17.60;94.30;;;;;;5050115;28;20279;-62
2022/07/01 09:01:15;;;;;;;7.63;5.10;;;17.60;78.00;;;;;;5049928;28;20296;-62
2022/07/01 09:03:42;;;;;;;6.07;4.17;;;17.70;57.80;;;;;;5044666;28;20206;-62
2022/07/01 09:06:14;;;;;;;6.40;3.93;;;17.80;97.80;;;;;;5033592;28;20210;-63
2022/07/01 09:08:41;;;;;;;3.37;2.93;;;17.80;6.70;;;;;;5033394;28;20206;-63
2022/07/01 09:11:15;;;;;;;4.00;2.90;;;17.70;1.00;;;;;;5034252;28;20210;-63
2022/07/01 09:13:44;;;;;;;5.13;3.03;;;17.70;1.00;;;;;;5033795;28;20216;-62
2022/07/01 09:16:15;;;;;;;4.77;2.70;;;17.90;1.00;;;;;;5033202;28;20208;-63
2022/07/01 09:19:00;;;;;;;3.70;2.70;;;18.20;1.00;;;;;;5033820;28;20220;-63
2022/07/01 09:21:29;;;;;;;3.43;2.70;;;18.50;99.90;;;;;;5033530;28;20210;-62
2022/07/01 09:23:56;;;;;;;7.30;2.90;;;18.50;99.60;;;;;;5033751;28;20244;-62
2022/07/01 09:26:22;;;;;;;4.77;2.80;;;18.40;1.00;;;;;;5032865;28;20217;-64
2022/07/01 09:28:55;;;;;;;8.50;2.83;;;18.20;99.90;;;;;;5051190;28;20267;-63
2022/07/01 09:31:22;;;;;;;3.27;2.60;;;17.90;1.00;;;;;;5053069;28;20201;-64
2022/07/01 09:34:04;;;;;;;5.20;3.10;;;17.90;99.90;;;;;;5053336;28;20213;-65
2022/07/01 09:36:30;;;;;;;4.10;2.53;;;18.00;55.90;;;;;;5052939;28;20326;-64
2022/07/01 09:38:57;;;;;;;3.63;2.30;;;18.00;99.90;;;;;;5053476;28;20213;-64
2022/07/01 09:41:25;;;;;;;2.73;2.20;;;17.90;1.00;;;;;;5053173;28;20206;-59
2022/07/01 09:43:51;;;;;;;2.20;1.90;;;18.00;1.00;;;;;;5052576;28;20205;-58
2022/07/01 09:46:19;;;;;;;4.57;2.27;;;18.10;63.00;;;;;;5052841;28;20213;-59
2022/07/01 09:48:47;;;;;;;5.53;2.50;;;18.20;99.90;;;;;;5052809;28;20672;-64
2022/07/01 09:51:15;;;;;;;5.83;2.10;;;18.40;1.00;;;;;;5052890;28;20205;-63
2022/07/01 09:53:42;;;;;;;3.30;2.13;;;18.50;99.90;;;;;;5052782;28;20252;-63
2022/07/01 09:56:08;;;;;;;2.83;2.00;;;18.60;99.90;;;;;;5052109;28;20201;-59
2022/07/01 09:58:38;;;;;;;3.73;1.97;;;18.70;99.90;;;;;;5052825;28;20210;-62
2022/07/01 10:01:07;;;;;;;3.67;1.80;;;18.70;1.00;;;;;;5052260;28;20217;-59
2022/07/01 10:03:38;;;;;;;2.97;2.00;;;18.80;99.90;;;;;;5053049;28;20206;-58
2022/07/01 10:06:25;;;;;;;3.00;1.73;;;19.00;99.90;;;;;;5051867;28;20762;-59
2022/07/01 10:09:06;;;;;;;2.30;1.53;;;19.00;99.90;;;;;;5052758;28;20209;-64
2022/07/01 10:11:58;;;;;;;3.63;1.53;;;19.00;99.90;;;;;;5052230;28;20209;-63
2022/07/01 10:14:26;;;;;;;5.53;1.50;;;19.00;99.90;;;;;;5052255;28;20292;-63
2022/07/01 10:16:53;;;;;;;5.30;1.70;;;19.00;99.90;;;;;;5037779;28;20322;-62
2022/07/01 10:19:29;;;;;;;4.40;2.20;;;19.10;99.90;;;;;;5033332;28;20213;-63
2022/07/01 10:22:00;;;;;;;5.03;1.77;;;19.10;99.90;;;;;;5032702;28;20206;-66
2022/07/01 10:24:28;;;;;;;4.70;1.90;;;19.00;99.90;;;;;;5032359;28;20253;-66
2022/07/01 10:27:21;;;;;;;4.43;1.97;;;19.00;99.90;;;;;;5031950;28;20720;-66
2022/07/01 10:29:48;;;;;;;4.30;2.27;;;19.20;99.90;;;;;;5032007;28;20292;-63
2022/07/01 10:32:28;;;;;;;5.63;1.70;;;19.10;97.70;;;;;;5032074;28;20205;-63
2022/07/01 10:35:07;;;;;;;4.10;1.97;;;19.00;51.20;;;;;;5031965;28;20719;-63
2022/07/01 10:37:34;;;;;;;4.10;1.50;;;18.90;20.50;;;;;;5041034;28;20283;-64
2022/07/01 10:40:01;;;;;;;3.50;1.20;;;19.00;99.90;;;;;;5052361;28;20213;-63
2022/07/01 10:42:30;;;;;;;2.77;1.47;;;19.00;1.00;;;;;;5051890;28;20205;-64
2022/07/01 10:45:01;;;;;;;4.13;1.40;;;19.00;1.00;;;;;;5051980;28;20854;-64
2022/07/01 10:47:28;;;;;;;2.87;1.20;;;18.90;1.00;;;;;;5051222;28;20742;-64
2022/07/01 10:49:57;;;;;;;1.90;1.00;;;18.90;1.00;;;;;;5052115;28;20210;-63
2022/07/01 10:52:26;;;;;;;1.90;0.90;;;18.80;1.00;;;;;;5051149;28;20259;-64
2022/07/01 10:54:55;;;;;;;2.17;1.20;;;19.00;1.00;;;;;;5052104;28;20206;-65
2022/07/01 10:57:31;;;;;;;2.90;1.27;;;18.90;99.90;;;;;;5051809;28;20248;-64
2022/07/01 11:00:31;;;;;;;4.40;1.20;;;18.60;1.00;;;;;;5051513;28;20914;-66
2022/07/01 11:03:06;;;;;;;1.70;1.30;;;18.60;1.00;;;;;;5051741;28;20245;-64
2022/07/01 11:05:37;;;;;;;2.47;1.20;;;18.70;1.00;;;;;;5053137;28;20225;-64
2022/07/01 11:08:07;;;;;;;5.63;1.10;;;19.00;1.00;;;;;;5053018;28;20632;-68
2022/07/01 11:10:34;;;;;;;1.83;1.20;;;19.20;99.90;;;;;;5051142;28;20231;-64
2022/07/01 11:13:02;;;;;;;2.97;1.07;;;19.40;1.00;;;;;;5042148;28;20214;-63
2022/07/01 11:15:30;;;;;;;2.47;0.80;;;19.70;99.90;;;;;;5031150;28;20214;-62
2022/07/01 11:17:59;;;;;;;1.50;0.77;;;20.10;99.90;;;;;;5031377;28;20242;-66
2022/07/01 11:20:26;;;;;;;1.53;0.70;;;20.10;99.90;;;;;;5031606;28;20627;-67
2022/07/01 11:22:53;;;;;;;2.23;0.50;;;20.10;99.90;;;;;;5031743;28;20207;-68
2022/07/01 11:25:23;;;;;;;0.87;0.43;;;19.90;99.90;;;;;;5030477;28;20300;-68
2022/07/01 11:27:52;;;;;;;1.10;0.70;;;19.80;99.90;;;;;;5030523;28;20257;-69
2022/07/01 11:30:21;;;;;;;1.63;0.60;;;19.70;99.90;;;;;;5031008;28;20272;-64
2022/07/01 11:32:50;;;;;;;3.03;0.90;;;19.80;99.90;;;;;;5031088;28;20260;-64
2022/07/01 11:40:56;;;;;;;1.00;0.73;;;20.20;99.90;;;;;;5031226;28;20248;-64
2022/07/01 11:43:24;;;;;;;1.60;0.70;;;20.30;99.90;;;;;;5031263;28;20260;-64
2022/07/01 11:45:51;;;;;;;6.53;0.97;;;20.20;99.90;;;;;;5031265;28;20226;-64
2022/07/01 11:48:36;;;;;;;0.97;0.70;;;20.10;99.90;;;;;;5031093;28;20230;-64
2022/07/01 11:51:08;;;;;;;3.13;1.00;;;20.00;99.90;;;;;;5030737;28;20629;-65
2022/07/01 11:53:35;;;;;;;0.73;0.60;;;20.20;99.90;;;;;;5030849;28;20270;-66
2022/07/01 11:56:03;;;;;;;1.90;0.80;;;20.30;99.90;;;;;;5037442;28;20255;-65
2022/07/01 11:58:44;;;;;;;3.57;1.07;;;20.40;99.90;;;;;;5050713;28;20303;-65
2022/07/01 12:01:10;;;;;;;3.33;1.00;;;20.50;99.90;;;;;;5050392;28;20205;-65
2022/07/01 12:03:38;;;;;;;1.20;0.70;;;20.50;99.90;;;;;;5050216;28;20209;-66
2022/07/01 12:06:05;;;;;;;1.20;0.70;;;20.30;99.90;;;;;;5050312;28;20316;-66
2022/07/01 12:08:32;;;;;;;2.03;0.70;;;20.30;99.90;;;;;;5050276;28;20255;-65
2022/07/01 12:11:00;;;;;;;3.30;1.00;;;20.40;99.90;;;;;;5050424;28;20206;-65
2022/07/01 12:13:28;;;;;;;1.47;0.70;;;20.70;99.90;;;;;;5050352;28;20628;-66
2022/07/01 12:16:05;;;;;;;3.10;1.07;;;20.90;99.90;;;;;;5050457;28;20205;-68
2022/07/01 12:18:32;;;;;;;1.13;0.97;;;20.90;99.90;;;;;;5050058;28;20286;-67
2022/07/01 12:20:59;;;;;;;2.60;1.10;;;20.60;99.90;;;;;;5050370;28;20202;-68
2022/07/01 12:23:25;;;;;;;3.37;0.90;;;20.70;99.90;;;;;;5050192;28;20240;-68
2022/07/01 12:25:54;;;;;;;1.33;0.80;;;20.90;99.90;;;;;;5049984;28;20229;-68
2022/07/01 12:28:33;;;;;;;2.37;1.00;;;21.00;99.90;;;;;;5050199;28;20283;-66
2022/07/01 12:31:01;;;;;;;2.07;1.10;;;21.30;99.90;;;;;;5050158;28;20263;-65
2022/07/01 12:33:28;;;;;;;2.03;0.83;;;21.40;99.90;;;;;;5031465;28;20240;-64
2022/07/01 12:35:56;;;;;;;2.93;1.20;;;21.50;99.90;;;;;;5029969;28;20669;-64
2022/07/01 12:38:23;;;;;;;4.83;1.00;;;21.40;99.90;;;;;;5033372;28;20234;-64
2022/07/01 12:40:49;;;;;;;2.20;1.10;;;21.10;99.90;;;;;;5034086;28;20211;-64
2022/07/01 12:43:29;;;;;;;3.77;1.23;;;20.60;99.90;;;;;;5033908;28;20206;-64
2022/07/01 12:45:58;;;;;;;3.27;1.00;;;20.40;99.90;;;;;;5033832;28;20226;-64
2022/07/01 12:48:25;;;;;;;1.50;1.00;;;20.50;99.90;;;;;;5034095;28;20245;-62
2022/07/01 12:50:56;;;;;;;3.60;1.03;;;20.60;99.90;;;;;;5033941;28;20237;-62
2022/07/01 12:53:25;;;;;;;2.63;0.80;;;20.60;99.90;;;;;;5033843;28;20610;-62
2022/07/01 12:55:53;;;;;;;4.30;1.00;;;20.50;99.90;;;;;;5033621;28;20214;-62
2022/07/01 12:58:23;;;;;;;3.23;0.90;;;20.70;99.90;;;;;;5033617;28;20237;-62
2022/07/01 13:00:52;;;;;;;3.40;0.90;;;20.90;99.90;;;;;;5033692;28;20673;-62
2022/07/01 13:03:22;;;;;;;1.10;0.70;;;21.20;99.90;;;;;;5034122;28;20203;-62